createdAt,value
2019-05-14T00:00:32.028Z,2.17
2019-05-14T00:01:35.119Z,2.10
2019-05-14T00:02:41.189Z,1.80
2019-05-14T00:03:44.606Z,1.87
2019-05-14T00:04:48.252Z,1.95
2019-05-14T00:05:52.353Z,2.00
2019-05-14T00:06:55.910Z,2.77
2019-05-14T00:08:02.089Z,2.40
2019-05-14T00:09:05.902Z,1.62
2019-05-14T00:10:11.893Z,1.80
2019-05-14T00:11:15.563Z,1.80
2019-05-14T00:12:22.135Z,2.37
2019-05-14T00:13:24.891Z,1.60
2019-05-14T00:14:37.224Z,1.87
2019-05-14T00:15:34.244Z,1.90
2019-05-14T00:16:38.364Z,1.60
2019-05-14T00:17:41.944Z,1.60
2019-05-14T00:18:46.082Z,2.00
2019-05-14T00:20:03.759Z,1.67
2019-05-14T00:20:55.474Z,1.80
2019-05-14T00:21:59.030Z,1.70
2019-05-14T00:23:03.217Z,2.10
2019-05-14T00:24:06.843Z,2.05
2019-05-14T00:25:11.688Z,1.80
2019-05-14T00:26:15.362Z,2.00
2019-05-14T00:27:21.693Z,2.15
2019-05-14T00:28:24.720Z,1.90
2019-05-14T00:29:28.829Z,2.02
2019-05-14T00:30:32.430Z,1.82
2019-05-14T00:31:36.542Z,1.40
2019-05-14T00:32:41.454Z,1.90
2019-05-14T00:33:45.730Z,2.10
2019-05-14T00:34:51.381Z,2.20
2019-05-14T00:35:55.101Z,1.77
2019-05-14T00:36:58.658Z,1.72
2019-05-14T00:38:02.776Z,1.80
2019-05-14T00:39:06.842Z,2.17
2019-05-14T00:40:11.752Z,1.80
2019-05-14T00:41:15.472Z,2.00
2019-05-14T00:42:21.530Z,1.67
2019-05-14T00:43:24.867Z,1.55
2019-05-14T00:44:29.056Z,1.87
2019-05-14T00:45:32.660Z,2.10
2019-05-14T00:46:36.831Z,1.98
2019-05-14T00:47:41.847Z,1.92
2019-05-14T00:48:46.273Z,2.25
2019-05-14T00:49:51.699Z,2.20
2019-05-14T00:50:55.777Z,2.50
2019-05-14T00:51:59.393Z,2.22
2019-05-14T00:53:03.508Z,2.30
2019-05-14T00:54:07.068Z,2.08
2019-05-14T00:55:11.831Z,2.20
2019-05-14T00:56:15.491Z,1.60
2019-05-14T00:57:21.144Z,2.20
2019-05-14T00:58:24.806Z,2.12
2019-05-14T00:59:28.927Z,2.25
2019-05-14T01:00:32.567Z,2.30
2019-05-14T01:01:36.727Z,2.10
2019-05-14T01:02:41.573Z,1.90
2019-05-14T01:03:45.908Z,2.20
2019-05-14T01:04:51.388Z,2.10
2019-05-14T01:05:55.241Z,1.80
2019-05-14T01:06:58.843Z,2.10
2019-05-14T01:08:02.960Z,1.92
2019-05-14T01:09:06.591Z,1.95
2019-05-14T01:10:11.580Z,1.98
2019-05-14T01:11:15.243Z,2.12
2019-05-14T01:12:21.363Z,2.12
2019-05-14T01:13:24.602Z,2.52
2019-05-14T01:14:28.718Z,1.90
2019-05-14T01:15:32.431Z,2.35
2019-05-14T01:16:36.559Z,1.90
2019-05-14T01:17:42.008Z,2.20
2019-05-14T01:18:45.875Z,2.35
2019-05-14T01:19:51.392Z,2.00
2019-05-14T01:20:55.368Z,2.12
2019-05-14T01:21:58.939Z,2.40
2019-05-14T01:23:03.051Z,2.20
2019-05-14T01:24:06.614Z,2.08
2019-05-14T01:25:11.984Z,2.10
2019-05-14T01:26:15.746Z,1.80
2019-05-14T01:27:21.133Z,2.55
2019-05-14T01:28:24.764Z,2.35
2019-05-14T01:29:31.397Z,2.87
2019-05-14T01:30:34.083Z,2.27
2019-05-14T01:31:38.235Z,2.22
2019-05-14T01:32:42.197Z,2.20
2019-05-14T01:33:46.362Z,2.27
2019-05-14T01:34:51.985Z,1.90
2019-05-14T01:35:55.719Z,2.90
2019-05-14T01:36:59.283Z,2.52
2019-05-14T01:38:03.467Z,2.30
2019-05-14T01:39:07.094Z,1.90
2019-05-14T01:40:11.556Z,2.10
2019-05-14T01:41:15.130Z,2.45
2019-05-14T01:42:21.469Z,2.65
2019-05-14T01:43:24.471Z,2.22
2019-05-14T01:44:28.591Z,2.77
2019-05-14T01:45:32.768Z,3.30
2019-05-14T01:46:36.889Z,3.05
2019-05-14T01:47:41.387Z,2.37
2019-05-14T01:48:45.753Z,2.27
2019-05-14T01:49:51.309Z,2.37
2019-05-14T01:50:55.069Z,2.85
2019-05-14T01:51:58.632Z,2.20
2019-05-14T01:53:02.783Z,2.70
2019-05-14T01:54:06.349Z,2.42
2019-05-14T01:55:11.442Z,2.50
2019-05-14T01:56:15.099Z,3.00
2019-05-14T01:57:19.316Z,2.65
2019-05-14T01:58:22.876Z,2.40
2019-05-14T01:59:27.035Z,3.10
2019-05-14T02:00:31.440Z,3.05
2019-05-14T02:01:35.690Z,2.90
2019-05-14T02:02:41.571Z,2.60
2019-05-14T02:03:45.066Z,2.40
2019-05-14T02:04:51.126Z,2.87
2019-05-14T02:05:54.382Z,2.95
2019-05-14T02:06:57.944Z,2.70
2019-05-14T02:08:02.119Z,2.90
2019-05-14T02:09:06.786Z,2.90
2019-05-14T02:10:11.595Z,2.92
2019-05-14T02:11:15.307Z,2.75
2019-05-14T02:12:19.426Z,3.25
2019-05-14T02:13:23.032Z,3.15
2019-05-14T02:14:27.148Z,2.47
2019-05-14T02:15:39.050Z,2.70
2019-05-14T02:16:36.556Z,2.80
2019-05-14T02:17:41.341Z,2.20
2019-05-14T02:18:45.847Z,3.17
2019-05-14T02:19:51.427Z,2.67
2019-05-14T02:20:55.276Z,2.85
2019-05-14T02:21:58.848Z,2.80
2019-05-14T02:23:02.968Z,2.90
2019-05-14T02:24:06.579Z,3.27
2019-05-14T02:25:12.335Z,2.90
2019-05-14T02:26:15.894Z,2.30
2019-05-14T02:27:21.379Z,2.85
2019-05-14T02:28:25.223Z,2.60
2019-05-14T02:29:31.464Z,3.40
2019-05-14T02:30:48.351Z,2.65
2019-05-14T02:31:40.323Z,2.90
2019-05-14T02:32:43.920Z,2.90
2019-05-14T02:33:50.358Z,3.33
2019-05-14T02:34:53.301Z,2.90
2019-05-14T02:36:00.006Z,3.37
2019-05-14T02:37:02.638Z,2.83
2019-05-14T02:38:10.119Z,3.08
2019-05-14T02:39:12.002Z,2.85
2019-05-14T02:40:16.221Z,3.10
2019-05-14T02:41:19.901Z,2.98
2019-05-14T02:42:24.041Z,2.70
2019-05-14T02:43:29.294Z,3.20
2019-05-14T02:44:33.366Z,3.25
2019-05-14T02:45:45.191Z,2.67
2019-05-14T02:46:43.675Z,2.65
2019-05-14T02:47:49.376Z,3.12
2019-05-14T02:48:53.004Z,2.40
2019-05-14T02:49:59.038Z,3.58
2019-05-14T02:51:02.335Z,3.10
2019-05-14T02:52:09.590Z,3.10
2019-05-14T02:53:11.685Z,3.40
2019-05-14T02:54:15.243Z,2.85
2019-05-14T02:55:19.653Z,3.33
2019-05-14T02:56:23.324Z,3.45
2019-05-14T02:57:30.345Z,2.92
2019-05-14T02:58:32.762Z,3.22
2019-05-14T02:59:39.471Z,3.12
2019-05-14T03:00:42.087Z,2.90
2019-05-14T03:01:46.210Z,3.47
2019-05-14T03:02:49.853Z,3.45
2019-05-14T03:03:54.028Z,3.02
2019-05-14T03:04:59.211Z,3.27
2019-05-14T03:06:03.522Z,3.62
2019-05-14T03:07:10.336Z,3.98
2019-05-14T03:08:13.046Z,3.40
2019-05-14T03:09:20.061Z,2.80
2019-05-14T03:10:22.441Z,3.52
2019-05-14T03:11:29.452Z,3.58
2019-05-14T03:12:31.895Z,3.35
2019-05-14T03:13:35.551Z,3.35
2019-05-14T03:14:40.249Z,3.55
2019-05-14T03:15:44.035Z,3.50
2019-05-14T03:16:49.491Z,3.80
2019-05-14T03:17:53.692Z,3.27
2019-05-14T03:18:59.506Z,3.40
2019-05-14T03:20:04.192Z,3.60
2019-05-14T03:21:09.368Z,4.28
2019-05-14T03:22:13.128Z,4.47
2019-05-14T03:23:20.959Z,3.30
2019-05-14T03:24:22.635Z,3.90
2019-05-14T03:25:29.686Z,3.80
2019-05-14T03:26:32.010Z,4.00
2019-05-14T03:27:36.183Z,4.15
2019-05-14T03:28:40.124Z,3.67
2019-05-14T03:29:44.358Z,4.25
2019-05-14T03:30:51.953Z,4.12
2019-05-14T03:31:53.868Z,4.28
2019-05-14T03:33:02.902Z,3.85
2019-05-14T03:34:03.939Z,4.35
2019-05-14T03:35:13.621Z,4.70
2019-05-14T03:36:17.619Z,3.98
2019-05-14T03:37:23.294Z,4.28
2019-05-14T03:38:24.790Z,3.60
2019-05-14T03:39:29.614Z,4.35
2019-05-14T03:40:33.929Z,4.00
2019-05-14T03:41:39.727Z,3.83
2019-05-14T03:42:43.261Z,4.20
2019-05-14T03:43:49.356Z,3.92
2019-05-14T03:44:52.656Z,3.80
2019-05-14T03:45:59.001Z,3.85
2019-05-14T03:47:05.226Z,4.08
2019-05-14T03:48:10.439Z,4.15
2019-05-14T03:49:13.210Z,4.03
2019-05-14T03:50:19.171Z,5.00
2019-05-14T03:51:22.609Z,4.80
2019-05-14T03:52:28.913Z,4.67
2019-05-14T03:53:49.778Z,4.72
2019-05-14T03:54:40.218Z,4.30
2019-05-14T03:55:43.349Z,5.00
2019-05-14T03:56:49.743Z,4.65
2019-05-14T03:57:52.839Z,4.17
2019-05-14T03:58:59.643Z,3.98
2019-05-14T04:00:02.253Z,4.42
2019-05-14T04:01:09.330Z,3.90
2019-05-14T04:02:11.817Z,4.50
2019-05-14T04:03:15.863Z,4.95
2019-05-14T04:04:20.148Z,5.03
2019-05-14T04:05:24.151Z,4.58
2019-05-14T04:06:30.229Z,4.22
2019-05-14T04:07:35.655Z,4.22
2019-05-14T04:08:41.853Z,4.70
2019-05-14T04:09:49.474Z,4.40
2019-05-14T04:10:54.754Z,4.28
2019-05-14T04:12:01.535Z,4.45
2019-05-14T04:13:08.980Z,5.08
2019-05-14T04:14:13.764Z,4.50
2019-05-14T04:15:19.292Z,4.50
2019-05-14T04:16:24.023Z,4.35
2019-05-14T04:17:36.967Z,4.40
2019-05-14T04:18:40.132Z,4.95
2019-05-14T04:19:44.645Z,4.70
2019-05-14T04:20:50.287Z,4.72
2019-05-14T04:21:55.902Z,4.97
2019-05-14T04:23:01.803Z,4.65
2019-05-14T04:24:09.501Z,4.65
2019-05-14T04:25:11.612Z,5.25
2019-05-14T04:26:19.997Z,5.12
2019-05-14T04:27:24.950Z,5.10
2019-05-14T04:28:31.815Z,5.25
2019-05-14T04:29:39.547Z,5.05
2019-05-14T04:30:45.243Z,5.62
2019-05-14T04:31:50.211Z,4.83
2019-05-14T04:32:59.189Z,4.75
2019-05-14T04:34:03.250Z,4.65
2019-05-14T04:35:09.609Z,4.42
2019-05-14T04:36:12.651Z,4.90
2019-05-14T04:37:20.149Z,4.62
2019-05-14T04:38:22.665Z,5.22
2019-05-14T04:39:30.433Z,5.10
2019-05-14T04:40:32.109Z,4.22
2019-05-14T04:41:39.354Z,4.78
2019-05-14T04:42:41.677Z,4.50
2019-05-14T04:43:45.792Z,4.92
2019-05-14T04:44:50.661Z,5.25
2019-05-14T04:45:55.000Z,4.62
2019-05-14T04:46:59.990Z,4.78
2019-05-14T04:48:24.135Z,4.53
2019-05-14T04:49:09.955Z,4.65
2019-05-14T04:50:14.269Z,5.12
2019-05-14T04:51:19.890Z,4.78
2019-05-14T04:52:23.666Z,5.10
2019-05-14T04:53:30.331Z,5.08
2019-05-14T04:54:33.167Z,4.92
2019-05-14T04:55:39.922Z,5.00
2019-05-14T04:56:42.636Z,4.80
2019-05-14T04:57:49.811Z,4.05
2019-05-14T04:58:52.212Z,4.50
2019-05-14T04:59:55.821Z,4.60
2019-05-14T05:01:00.806Z,5.00
2019-05-14T05:02:04.470Z,4.85
2019-05-14T05:03:12.577Z,5.35
2019-05-14T05:04:13.847Z,5.83
2019-05-14T05:05:19.605Z,5.12
2019-05-14T05:06:23.330Z,5.33
2019-05-14T05:07:29.729Z,4.20
2019-05-14T05:08:32.657Z,5.40
2019-05-14T05:09:39.700Z,4.60
2019-05-14T05:10:42.021Z,5.65
2019-05-14T05:11:46.133Z,5.50
2019-05-14T05:12:49.700Z,5.40
2019-05-14T05:13:53.806Z,5.53
2019-05-14T05:14:58.625Z,5.45
2019-05-14T05:16:03.034Z,5.12
2019-05-14T05:17:09.290Z,5.95
2019-05-14T05:18:12.416Z,4.90
2019-05-14T05:19:15.975Z,5.78
2019-05-14T05:20:20.161Z,5.60
2019-05-14T05:21:23.764Z,5.40
2019-05-14T05:22:28.653Z,5.53
2019-05-14T05:23:32.368Z,5.12
2019-05-14T05:24:38.094Z,5.50
2019-05-14T05:25:41.848Z,4.95
2019-05-14T05:26:48.388Z,4.85
2019-05-14T05:27:51.215Z,5.35
2019-05-14T05:29:03.638Z,4.95
2019-05-14T05:30:00.606Z,5.20
2019-05-14T05:31:06.258Z,5.20
2019-05-14T05:32:09.827Z,6.08
2019-05-14T05:33:14.000Z,5.70
2019-05-14T05:34:19.284Z,5.30
2019-05-14T05:35:23.548Z,6.65
2019-05-14T05:36:29.004Z,5.92
2019-05-14T05:37:32.872Z,5.92
2019-05-14T05:38:39.128Z,5.00
2019-05-14T05:39:42.246Z,6.03
2019-05-14T05:40:48.405Z,6.00
2019-05-14T05:41:51.572Z,5.58
2019-05-14T05:42:55.162Z,5.65
2019-05-14T05:43:59.288Z,6.62
2019-05-14T05:45:02.875Z,6.47
2019-05-14T05:46:08.666Z,5.70
2019-05-14T05:47:12.438Z,6.42
2019-05-14T05:48:18.822Z,5.62
2019-05-14T05:49:21.828Z,5.85
2019-05-14T05:50:28.544Z,5.90
2019-05-14T05:51:31.158Z,5.85
2019-05-14T05:52:35.324Z,6.42
2019-05-14T05:53:39.468Z,5.90
2019-05-14T05:54:43.708Z,5.72
2019-05-14T05:55:48.499Z,6.50
2019-05-14T05:56:52.690Z,6.72
2019-05-14T05:57:58.523Z,7.05
2019-05-14T05:59:02.095Z,6.10
2019-05-14T06:00:09.399Z,6.67
2019-05-14T06:01:13.794Z,7.30
2019-05-14T06:02:18.603Z,6.40
2019-05-14T06:03:22.997Z,6.62
2019-05-14T06:04:28.774Z,7.80
2019-05-14T06:05:32.342Z,6.90
2019-05-14T06:06:35.904Z,5.60
2019-05-14T06:07:40.031Z,6.62
2019-05-14T06:08:43.692Z,7.40
2019-05-14T06:09:48.346Z,6.33
2019-05-14T06:10:51.967Z,5.97
2019-05-14T06:11:56.180Z,6.92
2019-05-14T06:12:59.821Z,6.47
2019-05-14T06:14:04.011Z,6.95
2019-05-14T06:15:08.680Z,6.17
2019-05-14T06:16:13.067Z,6.42
2019-05-14T06:17:18.888Z,6.40
2019-05-14T06:18:22.414Z,6.37
2019-05-14T06:19:25.947Z,6.37
2019-05-14T06:20:30.166Z,6.55
2019-05-14T06:21:33.741Z,7.20
2019-05-14T06:22:38.451Z,6.97
2019-05-14T06:23:42.256Z,6.55
2019-05-14T06:24:48.557Z,6.83
2019-05-14T06:25:51.634Z,7.15
2019-05-14T06:26:58.372Z,7.55
2019-05-14T06:28:00.968Z,7.00
2019-05-14T06:29:05.076Z,6.60
2019-05-14T06:30:09.428Z,7.10
2019-05-14T06:31:13.584Z,7.47
2019-05-14T06:32:18.701Z,6.60
2019-05-14T06:33:22.975Z,7.15
2019-05-14T06:34:28.892Z,6.45
2019-05-14T06:35:32.307Z,6.87
2019-05-14T06:36:35.919Z,6.50
2019-05-14T06:37:40.037Z,6.58
2019-05-14T06:38:43.596Z,6.83
2019-05-14T06:39:48.376Z,6.83
2019-05-14T06:40:52.224Z,7.22
2019-05-14T06:41:58.563Z,6.90
2019-05-14T06:43:01.594Z,6.40
2019-05-14T06:44:05.715Z,6.37
2019-05-14T06:45:09.520Z,7.00
2019-05-14T06:46:13.663Z,6.83
2019-05-14T06:47:18.469Z,6.25
2019-05-14T06:48:30.288Z,6.40
2019-05-14T06:49:28.995Z,6.05
2019-05-14T06:50:33.313Z,6.08
2019-05-14T06:51:39.325Z,7.22
2019-05-14T06:52:42.671Z,7.55
2019-05-14T06:53:46.240Z,6.25
2019-05-14T06:54:50.369Z,7.00
2019-05-14T06:55:53.934Z,6.35
2019-05-14T06:56:58.364Z,6.20
2019-05-14T06:58:02.735Z,6.97
2019-05-14T06:59:09.037Z,6.42
2019-05-14T07:00:12.312Z,7.60
2019-05-14T07:01:18.494Z,7.58
2019-05-14T07:02:21.724Z,7.05
2019-05-14T07:03:27.941Z,6.40
2019-05-14T07:04:31.075Z,6.45
2019-05-14T07:05:35.483Z,7.58
2019-05-14T07:06:39.251Z,6.60
2019-05-14T07:07:43.436Z,6.35
2019-05-14T07:08:48.697Z,7.45
2019-05-14T07:09:52.755Z,5.85
2019-05-14T07:10:59.017Z,6.80
2019-05-14T07:12:02.171Z,6.62
2019-05-14T07:13:08.419Z,5.85
2019-05-14T07:14:11.759Z,5.90
2019-05-14T07:15:15.511Z,6.75
2019-05-14T07:16:20.084Z,6.20
2019-05-14T07:17:23.704Z,6.90
2019-05-14T07:18:30.161Z,6.37
2019-05-14T07:19:33.031Z,6.35
2019-05-14T07:20:39.140Z,5.87
2019-05-14T07:21:42.496Z,6.72
2019-05-14T07:22:48.345Z,5.97
2019-05-14T07:23:51.840Z,6.25
2019-05-14T07:24:58.496Z,5.70
2019-05-14T07:26:01.214Z,6.40
2019-05-14T07:27:05.334Z,5.45
2019-05-14T07:28:09.019Z,4.95
2019-05-14T07:29:13.205Z,4.85
2019-05-14T07:30:19.384Z,5.00
2019-05-14T07:31:22.921Z,6.08
2019-05-14T07:32:28.717Z,5.50
2019-05-14T07:33:32.438Z,5.30
2019-05-14T07:34:36.007Z,4.97
2019-05-14T07:35:40.151Z,4.90
2019-05-14T07:36:43.754Z,5.62
2019-05-14T07:37:48.855Z,5.62
2019-05-14T07:38:56.003Z,5.10
2019-05-14T07:39:58.292Z,6.22
2019-05-14T07:41:01.899Z,5.65
2019-05-14T07:42:06.091Z,4.87
2019-05-14T07:43:09.671Z,5.25
2019-05-14T07:44:13.795Z,4.87
2019-05-14T07:45:18.502Z,5.00
2019-05-14T07:46:22.690Z,5.35
2019-05-14T07:47:26.256Z,4.67
2019-05-14T07:48:30.386Z,5.47
2019-05-14T07:49:33.944Z,4.50
2019-05-14T07:50:39.690Z,5.12
2019-05-14T07:51:43.320Z,5.00
2019-05-14T07:52:49.779Z,4.58
2019-05-14T07:53:52.658Z,4.72
2019-05-14T07:54:58.686Z,4.40
2019-05-14T07:56:02.037Z,4.55
2019-05-14T07:57:08.452Z,4.05
2019-05-14T07:58:11.394Z,3.90
2019-05-14T07:59:15.509Z,4.40
2019-05-14T08:00:21.019Z,3.80
2019-05-14T08:01:25.093Z,3.95
2019-05-14T08:02:29.088Z,4.30
2019-05-14T08:03:33.291Z,3.77
2019-05-14T08:04:38.084Z,4.20
2019-05-14T08:05:42.511Z,3.75
2019-05-14T08:06:48.562Z,3.65
2019-05-14T08:07:51.838Z,4.10
2019-05-14T08:08:55.464Z,3.52
2019-05-14T08:09:59.594Z,4.08
2019-05-14T08:11:03.164Z,3.62
2019-05-14T08:12:09.348Z,3.67
2019-05-14T08:13:12.507Z,3.80
2019-05-14T08:14:18.531Z,3.02
2019-05-14T08:15:22.557Z,3.42
2019-05-14T08:16:28.809Z,2.87
2019-05-14T08:17:32.022Z,3.02
2019-05-14T08:18:36.175Z,3.20
2019-05-14T08:19:39.735Z,2.90
2019-05-14T08:20:43.862Z,2.60
2019-05-14T08:21:48.138Z,2.77
2019-05-14T08:22:52.452Z,3.00
2019-05-14T08:23:58.634Z,3.10
2019-05-14T08:25:01.812Z,2.75
2019-05-14T08:26:05.375Z,2.35
2019-05-14T08:27:09.494Z,2.40
2019-05-14T08:28:13.059Z,2.40
2019-05-14T08:29:18.122Z,2.60
2019-05-14T08:30:21.916Z,2.02
2019-05-14T08:31:26.071Z,2.02
2019-05-14T08:32:29.711Z,2.37
2019-05-14T08:33:33.821Z,2.40
2019-05-14T08:34:38.910Z,2.15
2019-05-14T08:35:43.364Z,2.50
2019-05-14T08:36:48.336Z,2.15
2019-05-14T08:38:04.673Z,1.85
2019-05-14T08:38:58.177Z,2.75
2019-05-14T08:40:02.316Z,2.15
2019-05-14T08:41:08.204Z,2.15
2019-05-14T08:42:11.716Z,1.80
2019-05-14T08:43:15.275Z,2.00
2019-05-14T08:44:19.851Z,1.70
2019-05-14T08:45:23.608Z,2.02
2019-05-14T08:46:28.338Z,2.25
2019-05-14T08:47:32.109Z,1.75
2019-05-14T08:48:38.631Z,1.80
2019-05-14T08:49:46.273Z,2.10
2019-05-14T08:50:48.180Z,1.72
2019-05-14T08:51:51.856Z,1.85
2019-05-14T08:52:58.152Z,1.75
2019-05-14T08:54:01.241Z,1.62
2019-05-14T08:55:10.904Z,1.47
2019-05-14T08:56:13.581Z,2.00
2019-05-14T08:57:19.010Z,1.62
2019-05-14T08:58:22.815Z,1.72
2019-05-14T08:59:28.702Z,1.87
2019-05-14T09:00:32.196Z,1.80
2019-05-14T09:01:38.488Z,1.90
2019-05-14T09:02:41.592Z,1.85
2019-05-14T09:03:45.708Z,1.70
2019-05-14T09:04:54.251Z,1.50
2019-05-14T09:05:57.859Z,1.70
2019-05-14T09:07:00.310Z,1.47
2019-05-14T09:08:04.534Z,1.30
2019-05-14T09:09:09.666Z,1.60
2019-05-14T09:10:13.952Z,1.30
2019-05-14T09:11:24.866Z,1.40
2019-05-14T09:12:23.368Z,1.55
2019-05-14T09:13:29.000Z,1.40
2019-05-14T09:14:32.706Z,1.60
2019-05-14T09:15:38.496Z,1.50
2019-05-14T09:16:46.911Z,1.60
2019-05-14T09:17:48.478Z,1.60
2019-05-14T09:18:52.887Z,1.47
2019-05-14T09:20:05.636Z,1.30
2019-05-14T09:21:02.267Z,1.75
2019-05-14T09:22:05.844Z,1.60
2019-05-14T09:23:09.987Z,1.60
2019-05-14T09:24:13.579Z,1.70
2019-05-14T09:25:18.921Z,1.45
2019-05-14T09:26:22.750Z,1.50
2019-05-14T09:27:28.648Z,1.30
2019-05-14T09:28:32.119Z,1.35
2019-05-14T09:29:36.279Z,1.20
2019-05-14T09:30:39.879Z,1.70
2019-05-14T09:31:43.999Z,1.10
2019-05-14T09:32:49.312Z,1.52
2019-05-14T09:33:53.349Z,1.07
2019-05-14T09:34:58.970Z,1.20
2019-05-14T09:36:17.589Z,1.22
2019-05-14T09:37:08.575Z,1.27
2019-05-14T09:38:12.957Z,1.17
2019-05-14T09:39:18.615Z,1.10
2019-05-14T09:40:22.352Z,1.05
2019-05-14T09:41:28.617Z,1.12
2019-05-14T09:42:31.786Z,1.30
2019-05-14T09:43:35.357Z,1.80
2019-05-14T09:44:39.472Z,0.90
2019-05-14T09:45:43.089Z,1.20
2019-05-14T09:46:47.197Z,1.20
2019-05-14T09:47:50.910Z,1.20
2019-05-14T09:48:55.079Z,1.40
2019-05-14T09:50:15.061Z,1.20
2019-05-14T09:51:04.497Z,1.10
2019-05-14T09:52:09.040Z,1.10
2019-05-14T09:53:13.283Z,1.10
2019-05-14T09:54:18.899Z,1.12
2019-05-14T09:55:22.627Z,1.10
2019-05-14T09:56:26.227Z,1.05
2019-05-14T09:57:30.360Z,1.30
2019-05-14T09:58:33.962Z,1.20
2019-05-14T09:59:38.557Z,0.98
2019-05-14T10:00:42.160Z,1.10
2019-05-14T10:01:46.292Z,1.12
2019-05-14T10:02:49.852Z,1.02
2019-05-14T10:03:54.016Z,1.32
2019-05-14T10:04:59.769Z,1.17
2019-05-14T10:06:03.398Z,1.10
2019-05-14T10:07:08.763Z,1.30
2019-05-14T10:08:12.760Z,1.60
2019-05-14T10:09:16.364Z,1.20
2019-05-14T10:10:20.564Z,1.37
2019-05-14T10:11:24.127Z,1.30
2019-05-14T10:12:28.251Z,1.17
2019-05-14T10:13:31.889Z,1.20
2019-05-14T10:14:36.044Z,0.90
2019-05-14T10:15:39.777Z,1.30
2019-05-14T10:16:43.903Z,1.22
2019-05-14T10:17:49.952Z,1.20
2019-05-14T10:18:53.243Z,1.45
2019-05-14T10:19:59.409Z,1.52
2019-05-14T10:21:02.647Z,1.50
2019-05-14T10:22:08.317Z,1.52
2019-05-14T10:23:11.983Z,1.55
2019-05-14T10:24:15.573Z,1.60
2019-05-14T10:25:19.854Z,1.50
2019-05-14T10:26:23.424Z,1.45
2019-05-14T10:27:28.391Z,1.62
2019-05-14T10:28:32.048Z,1.10
2019-05-14T10:29:36.166Z,1.60
2019-05-14T10:30:39.779Z,1.40
2019-05-14T10:31:43.904Z,1.60
2019-05-14T10:32:49.246Z,1.55
2019-05-14T10:33:53.241Z,1.85
2019-05-14T10:34:58.861Z,1.60
2019-05-14T10:36:02.620Z,1.40
2019-05-14T10:37:08.379Z,1.40
2019-05-14T10:38:11.946Z,1.50
2019-05-14T10:39:15.511Z,1.37
2019-05-14T10:40:20.392Z,1.60
2019-05-14T10:41:23.993Z,1.60
2019-05-14T10:42:29.393Z,1.60
2019-05-14T10:43:33.112Z,1.45
2019-05-14T10:44:38.683Z,1.30
2019-05-14T10:45:42.640Z,1.35
2019-05-14T10:46:46.768Z,1.27
2019-05-14T10:47:50.340Z,1.22
2019-05-14T10:48:54.455Z,1.17
2019-05-14T10:49:58.449Z,1.40
2019-05-14T10:51:03.504Z,1.62
2019-05-14T10:52:08.263Z,1.40
2019-05-14T10:53:12.647Z,0.90
2019-05-14T10:54:22.444Z,1.20
2019-05-14T10:55:21.990Z,1.10
2019-05-14T10:56:25.566Z,1.25
2019-05-14T10:57:29.718Z,1.15
2019-05-14T10:58:33.292Z,0.90
2019-05-14T10:59:37.417Z,1.00
2019-05-14T11:00:41.913Z,1.27
2019-05-14T11:01:46.217Z,1.30
2019-05-14T11:02:49.817Z,1.52
2019-05-14T11:03:53.930Z,1.55
2019-05-14T11:04:58.730Z,0.95
2019-05-14T11:06:02.957Z,1.10
2019-05-14T11:07:06.519Z,1.82
2019-05-14T11:08:11.893Z,1.20
2019-05-14T11:09:17.939Z,1.17
2019-05-14T11:10:21.651Z,1.07
2019-05-14T11:11:25.223Z,1.50
2019-05-14T11:12:29.851Z,1.52
2019-05-14T11:13:33.518Z,1.55
2019-05-14T11:14:38.780Z,1.12
2019-05-14T11:15:42.652Z,0.90
2019-05-14T11:16:48.513Z,1.57
2019-05-14T11:17:52.034Z,0.98
2019-05-14T11:18:57.610Z,0.90
2019-05-14T11:20:01.392Z,1.00
2019-05-14T11:21:19.742Z,1.05
2019-05-14T11:22:10.859Z,1.10
2019-05-14T11:23:14.977Z,0.90
2019-05-14T11:24:19.031Z,1.10
2019-05-14T11:25:23.331Z,1.52
2019-05-14T11:26:29.193Z,1.15
2019-05-14T11:27:32.699Z,1.30
2019-05-14T11:28:36.271Z,1.10
2019-05-14T11:29:40.427Z,1.00
2019-05-14T11:30:44.023Z,1.27
2019-05-14T11:31:48.617Z,1.00
2019-05-14T11:32:52.243Z,1.07
2019-05-14T11:33:58.851Z,1.30
2019-05-14T11:35:01.578Z,1.00
2019-05-14T11:36:05.705Z,1.12
2019-05-14T11:37:09.270Z,1.47
2019-05-14T11:38:28.402Z,1.10
2019-05-14T11:39:18.683Z,1.10
2019-05-14T11:40:22.946Z,0.90
2019-05-14T11:41:26.511Z,1.15
2019-05-14T11:42:31.493Z,0.90
2019-05-14T11:43:35.227Z,1.10
2019-05-14T11:44:39.379Z,1.20
2019-05-14T11:45:43.026Z,0.95
2019-05-14T11:46:57.098Z,1.10
2019-05-14T11:47:52.373Z,0.80
2019-05-14T11:48:59.221Z,1.00
2019-05-14T11:50:01.927Z,0.80
2019-05-14T11:51:08.810Z,0.80
2019-05-14T11:52:11.975Z,1.10
2019-05-14T11:53:19.816Z,1.00
2019-05-14T11:54:23.157Z,1.02
2019-05-14T11:55:27.384Z,0.95
2019-05-14T11:56:31.047Z,0.85
2019-05-14T11:57:35.146Z,1.10
2019-05-14T11:58:38.712Z,0.80
2019-05-14T11:59:42.876Z,1.20
2019-05-14T12:00:46.967Z,0.90
2019-05-14T12:01:54.812Z,1.00
2019-05-14T12:02:58.442Z,1.00
2019-05-14T12:04:02.138Z,0.98
2019-05-14T12:05:08.850Z,1.00
2019-05-14T12:06:13.158Z,1.05
2019-05-14T12:07:18.615Z,1.10
2019-05-14T12:08:22.578Z,1.20
2019-05-14T12:09:28.200Z,1.65
2019-05-14T12:10:31.952Z,1.10
2019-05-14T12:11:35.526Z,1.00
2019-05-14T12:12:39.707Z,1.50
2019-05-14T12:13:43.271Z,1.25
2019-05-14T12:14:48.505Z,1.10
2019-05-14T12:15:52.202Z,0.95
2019-05-14T12:16:56.327Z,0.90
2019-05-14T12:17:59.891Z,0.90
2019-05-14T12:19:04.003Z,1.20
2019-05-14T12:20:07.812Z,0.85
2019-05-14T12:21:11.964Z,0.80
2019-05-14T12:22:15.532Z,0.93
2019-05-14T12:23:19.691Z,1.15
2019-05-14T12:24:23.267Z,1.15
2019-05-14T12:25:29.418Z,1.10
2019-05-14T12:26:32.651Z,1.02
2019-05-14T12:27:38.788Z,1.07
2019-05-14T12:28:41.999Z,0.90
2019-05-14T12:29:49.458Z,1.02
2019-05-14T12:30:51.327Z,1.15
2019-05-14T12:31:55.483Z,1.12
2019-05-14T12:32:59.226Z,0.95
2019-05-14T12:34:03.370Z,1.10
2019-05-14T12:35:08.584Z,0.80
2019-05-14T12:36:12.992Z,1.00
2019-05-14T12:37:18.638Z,1.20
2019-05-14T12:38:22.410Z,0.93
2019-05-14T12:39:25.982Z,0.95
2019-05-14T12:40:30.179Z,1.05
2019-05-14T12:41:33.744Z,1.22
2019-05-14T12:42:39.197Z,0.90
2019-05-14T12:43:43.894Z,1.17
2019-05-14T12:44:48.240Z,0.80
2019-05-14T12:45:51.843Z,1.00
2019-05-14T12:46:58.526Z,0.88
2019-05-14T12:48:01.211Z,0.82
2019-05-14T12:49:05.428Z,1.42
2019-05-14T12:50:10.089Z,1.30
2019-05-14T12:51:14.241Z,1.15
2019-05-14T12:52:25.319Z,1.22
2019-05-14T12:53:23.591Z,0.70
2019-05-14T12:54:29.757Z,1.10
2019-05-14T12:55:32.956Z,1.00
2019-05-14T12:56:38.783Z,1.10
2019-05-14T12:57:42.312Z,1.15
2019-05-14T12:58:46.218Z,1.07
2019-05-14T12:59:51.931Z,0.80
2019-05-14T13:00:55.508Z,1.20
2019-05-14T13:01:59.641Z,1.22
2019-05-14T13:03:03.248Z,1.10
2019-05-14T13:04:08.492Z,0.82
2019-05-14T13:05:12.264Z,1.00
2019-05-14T13:06:18.866Z,1.05
2019-05-14T13:07:21.600Z,1.30
2019-05-14T13:08:25.791Z,1.00
2019-05-14T13:09:29.424Z,1.15
2019-05-14T13:10:33.542Z,1.15
2019-05-14T13:11:41.311Z,0.80
2019-05-14T13:12:43.012Z,1.00
2019-05-14T13:13:48.819Z,1.15
2019-05-14T13:14:52.335Z,0.80
2019-05-14T13:15:55.908Z,0.90
2019-05-14T13:17:00.019Z,0.90
2019-05-14T13:18:03.618Z,1.00
2019-05-14T13:19:09.235Z,1.12
2019-05-14T13:20:13.974Z,0.88
2019-05-14T13:21:19.110Z,1.10
2019-05-14T13:22:38.244Z,1.02
2019-05-14T13:23:29.320Z,0.90
2019-05-14T13:24:32.908Z,1.17
2019-05-14T13:25:39.105Z,0.85
2019-05-14T13:26:42.236Z,1.00
2019-05-14T13:27:46.480Z,1.00
2019-05-14T13:28:51.104Z,1.02
2019-05-14T13:29:55.287Z,1.00
2019-05-14T13:30:59.641Z,0.90
2019-05-14T13:32:03.861Z,1.10
2019-05-14T13:33:08.907Z,1.20
2019-05-14T13:34:13.096Z,1.12
2019-05-14T13:35:19.391Z,0.95
2019-05-14T13:36:22.603Z,1.30
2019-05-14T13:37:28.667Z,1.10
2019-05-14T13:38:32.002Z,1.45
2019-05-14T13:39:35.559Z,1.07
2019-05-14T13:40:39.697Z,0.95
2019-05-14T13:41:43.298Z,1.05
2019-05-14T13:42:49.173Z,1.62
2019-05-14T13:43:52.856Z,1.00
2019-05-14T13:44:58.452Z,1.20
2019-05-14T13:46:02.054Z,1.17
2019-05-14T13:47:09.032Z,0.90
2019-05-14T13:48:11.427Z,1.07
2019-05-14T13:49:15.543Z,1.15
2019-05-14T13:50:20.000Z,1.10
2019-05-14T13:51:24.278Z,1.17
2019-05-14T13:52:29.341Z,1.20
2019-05-14T13:53:33.587Z,1.30
2019-05-14T13:54:39.387Z,1.10
2019-05-14T13:55:46.023Z,0.98
2019-05-14T13:56:48.443Z,0.90
2019-05-14T13:57:52.637Z,1.22
2019-05-14T13:58:58.868Z,1.15
2019-05-14T14:00:02.105Z,1.40
2019-05-14T14:01:05.674Z,0.90
2019-05-14T14:02:10.213Z,1.20
2019-05-14T14:03:13.832Z,1.10
2019-05-14T14:04:18.432Z,1.25
2019-05-14T14:05:22.079Z,1.20
2019-05-14T14:06:26.208Z,1.20
2019-05-14T14:07:29.812Z,1.10
2019-05-14T14:08:33.929Z,1.20
2019-05-14T14:09:39.563Z,0.90
2019-05-14T14:10:46.096Z,1.05
2019-05-14T14:11:48.615Z,1.20
2019-05-14T14:12:52.784Z,1.20
2019-05-14T14:13:58.497Z,1.20
2019-05-14T14:15:02.120Z,1.25
2019-05-14T14:16:05.999Z,1.27
2019-05-14T14:17:10.315Z,1.22
2019-05-14T14:18:13.940Z,1.37